Time;durP1;ratioP1;P1;durP2;ratioP2;P2;SDS_P1;SDS_P2;PMS_P1;PMS_P2;Temp;Humidity;BMP_temperature;BMP_pressure;BME280_temperature;BME280_humidity;BME280_pressure;Samples;Min_cycle;Max_cycle;Signal;HPM_P1;HPM_P2
2021/12/12 00:00:59;;;;;;;44.03;27.05;;;0.50;99.90;;;;;;4889494;29;20139;-81
2021/12/12 00:03:38;;;;;;;39.22;25.80;;;0.50;99.90;;;;;;4864052;29;20064;-81
2021/12/12 00:06:17;;;;;;;41.28;25.45;;;0.50;99.90;;;;;;4890371;29;20052;-82
2021/12/12 00:08:50;;;;;;;42.72;26.10;;;0.50;99.90;;;;;;4888807;29;20052;-82
2021/12/12 00:11:22;;;;;;;51.30;27.75;;;0.60;99.90;;;;;;4884062;29;20447;-82
2021/12/12 00:13:59;;;;;;;40.53;25.17;;;0.60;99.90;;;;;;4892164;29;20040;-82
2021/12/12 00:16:28;;;;;;;41.50;25.17;;;0.60;99.90;;;;;;4888458;29;20056;-82
2021/12/12 00:18:56;;;;;;;45.40;26.55;;;0.60;99.90;;;;;;4892518;29;20044;-82
2021/12/12 00:21:27;;;;;;;43.63;25.50;;;0.70;99.90;;;;;;4888401;29;20403;-82
2021/12/12 00:23:55;;;;;;;40.63;25.45;;;0.70;99.90;;;;;;4890539;29;20070;-82
2021/12/12 00:26:23;;;;;;;39.28;25.13;;;0.70;99.90;;;;;;4889791;29;20803;-82
2021/12/12 00:28:50;;;;;;;40.05;26.85;;;0.80;99.90;;;;;;4888625;29;20067;-82
2021/12/12 00:31:20;;;;;;;38.42;23.80;;;0.80;99.90;;;;;;4886817;29;20040;-82
2021/12/12 00:33:50;;;;;;;40.27;24.97;;;0.80;99.90;;;;;;4886793;29;20063;-82
2021/12/12 00:36:18;;;;;;;39.95;23.35;;;0.80;99.90;;;;;;4871544;29;20052;-82
2021/12/12 00:38:53;;;;;;;35.53;23.13;;;0.90;99.90;;;;;;4887548;29;20451;-82
2021/12/12 00:41:31;;;;;;;37.78;24.65;;;0.90;99.90;;;;;;4886628;29;20056;-82
2021/12/12 00:44:00;;;;;;;38.67;25.65;;;0.90;99.90;;;;;;4890875;29;20051;-82
2021/12/12 00:46:29;;;;;;;39.43;26.27;;;1.00;99.90;;;;;;4890142;29;20047;-82
2021/12/12 00:48:56;;;;;;;38.70;23.42;;;1.00;99.90;;;;;;4894651;29;20299;-82
2021/12/12 00:51:29;;;;;;;36.83;25.00;;;1.00;99.90;;;;;;4889629;29;20045;-82
2021/12/12 00:53:58;;;;;;;35.42;24.52;;;1.00;99.90;;;;;;4906033;29;20099;-82
2021/12/12 00:56:26;;;;;;;34.00;21.80;;;1.00;99.90;;;;;;4890762;29;20060;-82
2021/12/12 00:58:55;;;;;;;34.42;21.92;;;1.00;99.90;;;;;;4887067;29;20064;-82
2021/12/12 01:01:29;;;;;;;33.63;20.53;;;1.10;99.90;;;;;;4889834;29;20594;-82
2021/12/12 01:04:07;;;;;;;33.05;20.15;;;1.10;99.90;;;;;;4904552;29;20143;-82
2021/12/12 01:06:34;;;;;;;33.88;19.73;;;1.20;99.90;;;;;;4888621;29;20424;-82
2021/12/12 01:09:06;;;;;;;30.67;19.65;;;1.20;99.90;;;;;;4884811;29;20056;-82
2021/12/12 01:11:41;;;;;;;28.20;20.80;;;1.20;99.90;;;;;;4901258;29;20033;-82
2021/12/12 01:14:12;;;;;;;37.25;22.48;;;1.20;99.90;;;;;;4890194;29;20048;-82
2021/12/12 01:16:53;;;;;;;34.60;20.98;;;1.20;99.90;;;;;;4889332;29;20048;-82
2021/12/12 01:19:25;;;;;;;30.85;20.02;;;1.30;99.90;;;;;;4902431;29;20047;-82
2021/12/12 01:21:57;;;;;;;35.55;23.00;;;1.20;99.90;;;;;;4889976;29;20048;-82
2021/12/12 01:24:34;;;;;;;29.58;20.05;;;1.30;99.90;;;;;;4905495;29;20051;-82
2021/12/12 01:27:04;;;;;;;34.08;19.80;;;1.30;99.90;;;;;;4904239;29;20052;-82
2021/12/12 01:29:32;;;;;;;30.35;19.73;;;1.30;99.90;;;;;;4901149;29;20057;-82
2021/12/12 01:32:03;;;;;;;33.85;19.88;;;1.30;99.90;;;;;;4888902;29;20514;-82
2021/12/12 01:34:31;;;;;;;32.45;20.13;;;1.30;99.90;;;;;;4887766;29;20060;-82
2021/12/12 01:39:35;;;;;;;34.15;19.98;;;1.30;99.90;;;;;;4890865;29;20126;-81
2021/12/12 01:42:14;;;;;;;29.27;20.25;;;1.30;99.90;;;;;;4887887;29;20148;-81
2021/12/12 01:44:52;;;;;;;30.90;22.33;;;1.30;99.90;;;;;;4874119;29;20529;-81
2021/12/12 01:47:32;;;;;;;33.90;21.38;;;1.30;99.90;;;;;;4873704;29;20052;-81
2021/12/12 01:50:04;;;;;;;32.55;21.98;;;1.40;99.90;;;;;;4905255;29;20072;-81
2021/12/12 01:52:32;;;;;;;35.58;22.30;;;1.40;99.90;;;;;;4890809;29;20410;-81
2021/12/12 01:55:21;;;;;;;39.58;23.73;;;1.40;99.90;;;;;;4886428;29;20092;-82
2021/12/12 01:57:49;;;;;;;35.50;23.05;;;1.40;99.90;;;;;;4885625;29;20056;-82
2021/12/12 02:00:52;;;;;;;34.33;22.40;;;1.40;99.90;;;;;;4899499;29;20575;-82
2021/12/12 02:03:23;;;;;;;38.80;24.33;;;1.50;99.90;;;;;;4883969;29;20052;-81
2021/12/12 02:05:52;;;;;;;33.28;21.80;;;1.50;99.90;;;;;;4890963;29;20048;-81
2021/12/12 02:08:20;;;;;;;29.50;18.13;;;1.50;99.90;;;;;;4888672;29;20049;-81
2021/12/12 02:11:02;;;;;;;32.53;22.85;;;1.50;99.90;;;;;;4908613;29;20394;-81
2021/12/12 02:13:32;;;;;;;37.75;22.35;;;1.50;99.90;;;;;;4891884;29;20399;-81
2021/12/12 02:16:01;;;;;;;35.83;23.25;;;1.50;99.90;;;;;;4890991;29;20097;-81
2021/12/12 02:18:34;;;;;;;40.70;25.50;;;1.50;99.90;;;;;;4893962;29;20445;-81
2021/12/12 02:21:29;;;;;;;39.53;24.73;;;1.50;99.90;;;;;;4903759;29;20052;-81
2021/12/12 02:37:43;;;;;;;42.95;25.23;;;1.50;99.90;;;;;;4908783;29;20052;-81
2021/12/12 02:40:19;;;;;;;37.55;22.92;;;1.50;99.90;;;;;;4892532;29;20055;-81
2021/12/12 02:42:47;;;;;;;34.05;21.38;;;1.50;99.90;;;;;;4894048;29;20052;-81
2021/12/12 02:45:17;;;;;;;39.13;24.65;;;1.50;99.90;;;;;;4905819;29;20041;-81
2021/12/12 02:47:53;;;;;;;33.92;23.85;;;1.50;99.90;;;;;;4892344;29;20059;-81
2021/12/12 02:50:24;;;;;;;39.33;24.55;;;1.50;99.90;;;;;;4892859;29;20106;-81
2021/12/12 02:53:06;;;;;;;38.28;24.00;;;1.50;99.90;;;;;;4902463;29;20059;-81
2021/12/12 02:55:38;;;;;;;41.35;24.15;;;1.50;99.90;;;;;;4904862;29;20053;-81
2021/12/12 02:58:07;;;;;;;38.85;23.52;;;1.50;99.90;;;;;;4890958;29;20645;-81
2021/12/12 03:00:41;;;;;;;41.13;23.42;;;1.50;99.90;;;;;;4905100;29;20669;-81
2021/12/12 03:03:08;;;;;;;42.08;26.58;;;1.50;99.90;;;;;;4891265;29;20060;-81
2021/12/12 03:05:41;;;;;;;49.97;28.08;;;1.50;99.90;;;;;;4903815;29;20041;-81
2021/12/12 03:08:09;;;;;;;34.97;23.55;;;1.50;99.90;;;;;;4885945;29;20052;-81
2021/12/12 03:10:39;;;;;;;44.22;26.05;;;1.50;99.90;;;;;;4889799;29;20510;-81
2021/12/12 03:13:08;;;;;;;43.28;25.27;;;1.50;99.90;;;;;;4904085;29;20053;-81
2021/12/12 03:15:39;;;;;;;43.00;25.40;;;1.50;99.90;;;;;;4891129;29;20466;-81
2021/12/12 03:18:13;;;;;;;39.60;23.20;;;1.50;99.90;;;;;;4891059;29;20056;-81
2021/12/12 03:20:48;;;;;;;42.83;26.38;;;1.50;99.90;;;;;;4890866;29;20049;-81
2021/12/12 03:23:31;;;;;;;44.80;27.02;;;1.50;99.90;;;;;;4889075;29;20064;-81
2021/12/12 03:26:04;;;;;;;42.22;25.38;;;1.50;99.90;;;;;;4890326;29;20135;-81
2021/12/12 03:28:34;;;;;;;41.33;25.75;;;1.50;99.90;;;;;;4889097;29;20142;-80
2021/12/12 03:31:05;;;;;;;45.65;27.73;;;1.60;99.90;;;;;;4904831;29;20053;-81
2021/12/12 03:33:33;;;;;;;44.30;26.98;;;1.60;99.90;;;;;;4890850;29;20448;-82
2021/12/12 03:36:05;;;;;;;43.47;26.17;;;1.60;99.90;;;;;;4893452;29;20537;-81
2021/12/12 03:38:37;;;;;;;45.65;25.60;;;1.60;99.90;;;;;;4892916;29;20076;-81
2021/12/12 03:41:10;;;;;;;43.55;26.45;;;1.60;99.90;;;;;;4890598;29;20047;-82
2021/12/12 03:43:38;;;;;;;42.17;23.90;;;1.60;99.90;;;;;;4891636;29;20044;-83
2021/12/12 03:46:10;;;;;;;40.05;24.75;;;1.60;99.90;;;;;;4904297;29;20422;-83
2021/12/12 03:48:41;;;;;;;42.17;26.45;;;1.60;99.90;;;;;;4876549;29;20139;-83
2021/12/12 03:51:11;;;;;;;42.42;26.77;;;1.60;99.90;;;;;;4889962;29;20139;-83
2021/12/12 03:53:39;;;;;;;48.22;29.02;;;1.60;99.90;;;;;;4884378;29;20128;-81
2021/12/12 03:56:08;;;;;;;47.60;28.38;;;1.60;99.90;;;;;;4891697;29;20074;-81
2021/12/12 03:58:36;;;;;;;48.28;27.60;;;1.60;99.90;;;;;;4882926;29;20041;-81
2021/12/12 04:01:41;;;;;;;43.33;26.52;;;1.50;99.90;;;;;;4888569;29;20045;-81
2021/12/12 04:04:19;;;;;;;44.85;25.45;;;1.60;99.90;;;;;;4872342;29;20056;-81
2021/12/12 04:06:47;;;;;;;39.60;25.58;;;1.50;99.90;;;;;;4892367;29;20047;-81
2021/12/12 04:09:16;;;;;;;41.83;25.58;;;1.50;99.90;;;;;;4889464;29;20048;-81
2021/12/12 04:11:50;;;;;;;45.92;26.27;;;1.50;99.90;;;;;;4894091;29;21019;-81
2021/12/12 04:14:18;;;;;;;42.58;26.50;;;1.50;99.90;;;;;;4891343;29;20057;-80
2021/12/12 04:16:49;;;;;;;43.00;26.60;;;1.50;99.90;;;;;;4890113;29;20055;-80
2021/12/12 04:19:16;;;;;;;41.67;24.92;;;1.50;99.90;;;;;;4890543;29;20083;-80
2021/12/12 04:21:44;;;;;;;40.67;23.95;;;1.50;99.90;;;;;;4903365;29;20057;-80
2021/12/12 04:24:17;;;;;;;39.30;25.33;;;1.50;99.90;;;;;;4896665;29;20059;-80
2021/12/12 04:26:44;;;;;;;39.58;24.88;;;1.50;99.90;;;;;;4891107;29;20051;-80
2021/12/12 04:29:18;;;;;;;46.08;26.33;;;1.50;99.90;;;;;;4888718;29;20479;-80
2021/12/12 04:31:52;;;;;;;43.20;26.33;;;1.50;99.90;;;;;;4891898;29;20079;-80
2021/12/12 04:34:27;;;;;;;42.50;24.63;;;1.50;99.90;;;;;;4889293;29;20067;-80
2021/12/12 04:36:56;;;;;;;42.15;26.50;;;1.40;99.90;;;;;;4884355;29;20076;-80
2021/12/12 04:39:31;;;;;;;42.65;29.15;;;1.40;99.90;;;;;;4891667;29;20466;-80
2021/12/12 04:42:09;;;;;;;49.78;29.60;;;1.40;99.90;;;;;;4890955;29;20088;-80
2021/12/12 04:44:38;;;;;;;43.38;26.20;;;1.30;99.90;;;;;;4890134;29;20304;-80
2021/12/12 04:50:35;;;;;;;44.78;26.95;;;1.30;99.90;;;;;;4889421;29;20076;-80
2021/12/12 04:53:15;;;;;;;47.10;27.02;;;1.30;99.90;;;;;;4889183;29;20051;-81
2021/12/12 04:56:08;;;;;;;45.80;27.23;;;1.20;99.90;;;;;;4902833;29;20052;-81
2021/12/12 04:59:00;;;;;;;48.75;23.92;;;1.20;99.90;;;;;;4885084;29;20063;-81
2021/12/12 05:01:56;;;;;;;45.42;24.52;;;1.10;99.90;;;;;;4887452;29;20150;-81
2021/12/12 05:04:37;;;;;;;39.63;24.25;;;1.10;99.90;;;;;;4885119;29;20071;-81
2021/12/12 05:07:31;;;;;;;40.85;22.40;;;1.00;99.90;;;;;;4871680;29;20056;-81
2021/12/12 05:10:12;;;;;;;42.60;24.48;;;1.00;99.90;;;;;;4886963;29;20048;-81
2021/12/12 05:12:51;;;;;;;38.53;23.65;;;0.90;99.90;;;;;;4886003;29;20555;-81
2021/12/12 05:15:20;;;;;;;40.75;22.15;;;0.90;99.90;;;;;;4888214;29;20048;-81
2021/12/12 05:17:55;;;;;;;36.20;22.08;;;0.90;99.90;;;;;;4905428;29;20518;-81
2021/12/12 05:20:29;;;;;;;38.85;21.67;;;0.90;99.90;;;;;;4906539;29;20057;-81
2021/12/12 05:23:00;;;;;;;41.75;22.38;;;0.90;99.90;;;;;;4886131;29;20052;-81
2021/12/12 05:25:35;;;;;;;40.92;19.85;;;0.90;99.90;;;;;;4887100;29;20077;-81
2021/12/12 05:28:03;;;;;;;36.63;21.25;;;0.90;99.90;;;;;;4891009;29;20063;-81
2021/12/12 05:30:33;;;;;;;36.67;21.23;;;0.90;99.90;;;;;;4889121;29;20045;-81
2021/12/12 05:33:02;;;;;;;37.17;18.85;;;0.90;99.90;;;;;;4887886;29;20406;-81
2021/12/12 05:35:33;;;;;;;31.65;18.85;;;0.90;99.90;;;;;;4889768;29;20067;-81
2021/12/12 05:38:06;;;;;;;33.47;19.85;;;0.90;99.90;;;;;;4885706;29;20060;-81
2021/12/12 05:40:36;;;;;;;32.17;17.63;;;1.00;99.90;;;;;;4889800;29;20056;-81
2021/12/12 05:43:04;;;;;;;;;;;1.00;99.90;;;;;;4886014;29;20040;-81
2021/12/12 05:45:33;;;;;;;33.72;18.60;;;1.00;99.90;;;;;;4897260;29;19929;-81
2021/12/12 05:48:03;;;;;;;35.25;18.10;;;1.00;99.90;;;;;;4889583;29;20080;-81
2021/12/12 05:50:30;;;;;;;28.20;17.20;;;1.00;99.90;;;;;;4890126;29;20045;-81
2021/12/12 05:52:57;;;;;;;31.58;17.38;;;1.00;99.90;;;;;;4887741;29;20418;-81
2021/12/12 05:55:31;;;;;;;32.33;17.17;;;1.00;99.90;;;;;;4890672;29;20060;-81
2021/12/12 05:58:00;;;;;;;28.45;16.38;;;1.10;99.90;;;;;;4889503;29;20048;-81
2021/12/12 06:00:32;;;;;;;33.33;18.38;;;1.10;99.90;;;;;;4871955;29;20040;-81
2021/12/12 06:03:00;;;;;;;35.17;17.40;;;1.10;99.90;;;;;;4890906;29;20095;-81
2021/12/12 06:05:31;;;;;;;30.77;15.80;;;1.20;99.90;;;;;;4889140;29;20115;-81
2021/12/12 06:07:58;;;;;;;33.90;18.35;;;1.20;99.90;;;;;;4906345;29;20128;-80
2021/12/12 06:10:26;;;;;;;29.60;17.05;;;1.30;99.90;;;;;;4902639;29;20040;-80
2021/12/12 06:12:54;;;;;;;25.92;16.02;;;1.30;99.90;;;;;;4888766;29;20058;-80
2021/12/12 06:15:23;;;;;;;35.15;18.67;;;1.30;99.90;;;;;;4869531;29;20048;-80
2021/12/12 06:17:51;;;;;;;29.23;14.70;;;1.40;99.90;;;;;;4889706;29;20033;-80
2021/12/12 06:20:22;;;;;;;27.58;15.63;;;1.40;99.90;;;;;;4891560;29;20116;-80
2021/12/12 06:22:52;;;;;;;28.20;16.63;;;1.40;99.90;;;;;;4887248;29;20490;-80
2021/12/12 06:25:21;;;;;;;33.63;16.08;;;1.40;99.90;;;;;;4904501;29;20545;-80
2021/12/12 06:27:48;;;;;;;28.15;17.80;;;1.40;99.90;;;;;;4890087;29;20041;-81
2021/12/12 06:30:20;;;;;;;27.90;15.55;;;1.40;99.90;;;;;;4887718;29;20049;-81
2021/12/12 06:32:49;;;;;;;27.70;16.88;;;1.40;99.90;;;;;;4889669;29;20068;-81
2021/12/12 06:35:17;;;;;;;25.00;15.15;;;1.40;99.90;;;;;;4887742;29;20044;-81
2021/12/12 06:37:45;;;;;;;27.10;15.68;;;1.40;99.90;;;;;;4890439;29;20052;-81
2021/12/12 06:40:15;;;;;;;28.30;16.02;;;1.40;99.90;;;;;;4890207;29;20053;-81
2021/12/12 06:42:43;;;;;;;24.65;14.32;;;1.50;99.90;;;;;;4895176;29;20536;-81
2021/12/12 06:45:12;;;;;;;30.90;16.08;;;1.50;99.90;;;;;;4886295;29;20048;-81
2021/12/12 06:47:40;;;;;;;32.20;17.95;;;1.50;99.90;;;;;;4885306;29;20135;-81
2021/12/12 06:50:07;;;;;;;36.40;17.52;;;1.50;99.90;;;;;;4903327;29;20044;-81
2021/12/12 06:52:36;;;;;;;25.55;15.27;;;1.40;99.90;;;;;;4889293;29;20057;-81
2021/12/12 06:55:07;;;;;;;29.95;16.45;;;1.40;99.90;;;;;;4886392;29;20041;-81
2021/12/12 06:57:35;;;;;;;31.88;16.20;;;1.40;99.90;;;;;;4892803;29;20040;-81
2021/12/12 07:00:15;;;;;;;28.98;16.52;;;1.40;99.90;;;;;;4905152;29;20571;-81
2021/12/12 07:02:45;;;;;;;36.70;17.77;;;1.40;99.90;;;;;;4904916;29;20067;-81
2021/12/12 07:05:16;;;;;;;27.40;15.82;;;1.40;99.90;;;;;;4890553;29;20472;-81
2021/12/12 07:07:44;;;;;;;30.38;16.58;;;1.40;99.90;;;;;;4894247;29;20055;-81
2021/12/12 07:10:14;;;;;;;36.05;16.90;;;1.40;99.90;;;;;;4891773;29;20055;-81
2021/12/12 07:12:43;;;;;;;30.77;16.13;;;1.40;99.90;;;;;;4894721;29;20751;-81
2021/12/12 07:15:13;;;;;;;32.38;17.17;;;1.40;99.90;;;;;;4886500;29;20053;-81
2021/12/12 07:17:40;;;;;;;32.67;16.40;;;1.40;99.90;;;;;;4896047;29;20048;-81
2021/12/12 07:20:11;;;;;;;31.95;17.50;;;1.40;99.90;;;;;;4891118;29;20089;-81
2021/12/12 07:22:38;;;;;;;33.25;16.95;;;1.50;99.90;;;;;;4909830;29;20063;-81
2021/12/12 07:25:08;;;;;;;32.33;17.67;;;1.50;99.90;;;;;;4890042;29;20049;-81
2021/12/12 07:27:35;;;;;;;31.33;16.30;;;1.50;99.90;;;;;;4908601;29;20498;-81
2021/12/12 07:30:05;;;;;;;33.47;17.20;;;1.50;99.90;;;;;;4895343;29;20553;-81
2021/12/12 07:32:33;;;;;;;33.75;18.73;;;1.50;99.90;;;;;;4901347;29;20047;-81
2021/12/12 07:35:00;;;;;;;29.88;16.42;;;1.50;99.90;;;;;;4890429;29;20410;-81
2021/12/12 07:37:29;;;;;;;30.77;16.20;;;1.50;99.90;;;;;;4889988;29;20068;-81
2021/12/12 07:39:56;;;;;;;31.60;16.23;;;1.50;99.90;;;;;;4893707;29;20063;-81
2021/12/12 07:42:23;;;;;;;26.45;15.63;;;1.50;99.90;;;;;;4892801;29;20053;-81
2021/12/12 07:44:50;;;;;;;28.55;17.38;;;1.60;99.90;;;;;;4891681;29;20067;-81
2021/12/12 07:47:17;;;;;;;34.90;16.85;;;1.60;99.90;;;;;;4889010;29;20052;-81
2021/12/12 07:49:48;;;;;;;29.17;16.77;;;1.60;99.90;;;;;;4890299;29;20064;-81
2021/12/12 07:52:20;;;;;;;33.08;17.77;;;1.60;99.90;;;;;;4886543;29;20457;-81
2021/12/12 07:54:51;;;;;;;29.83;15.65;;;1.60;99.90;;;;;;4885606;29;20040;-81
2021/12/12 07:57:20;;;;;;;25.73;14.70;;;1.60;99.90;;;;;;4889954;29;20380;-81
2021/12/12 07:59:48;;;;;;;24.30;13.50;;;1.60;99.90;;;;;;4892487;29;20048;-81
2021/12/12 08:02:17;;;;;;;23.58;14.60;;;1.60;99.90;;;;;;4902371;29;20240;-81
2021/12/12 08:04:45;;;;;;;23.67;15.18;;;1.60;99.90;;;;;;4891014;29;20040;-81
2021/12/12 08:07:18;;;;;;;26.73;16.13;;;1.60;99.90;;;;;;4888448;29;20482;-81
2021/12/12 08:09:46;;;;;;;28.65;16.58;;;1.60;99.90;;;;;;4891396;29;20055;-81
2021/12/12 08:12:16;;;;;;;29.25;15.20;;;1.70;99.90;;;;;;4889827;29;20045;-81
2021/12/12 08:14:44;;;;;;;31.48;17.45;;;1.70;99.90;;;;;;4891652;29;20045;-81
2021/12/12 08:17:12;;;;;;;28.48;16.88;;;1.70;99.90;;;;;;4889271;29;20100;-80
2021/12/12 08:19:40;;;;;;;29.73;17.25;;;1.70;99.90;;;;;;4886271;29;20518;-80
2021/12/12 08:22:10;;;;;;;39.03;17.38;;;1.70;99.90;;;;;;4890984;29;20048;-80
2021/12/12 08:24:38;;;;;;;28.67;13.90;;;1.70;99.90;;;;;;4893214;29;20049;-80
2021/12/12 08:27:08;;;;;;;29.27;17.10;;;1.70;99.90;;;;;;4890691;29;20076;-81
2021/12/12 08:29:36;;;;;;;30.73;17.23;;;1.80;99.90;;;;;;4887526;29;20523;-81
2021/12/12 08:32:05;;;;;;;24.23;16.98;;;1.80;99.90;;;;;;4890678;29;20045;-82
2021/12/12 08:34:33;;;;;;;29.05;18.17;;;1.80;99.90;;;;;;4888182;29;20403;-82
2021/12/12 08:37:01;;;;;;;31.42;16.88;;;1.90;99.90;;;;;;4888036;29;20045;-81
2021/12/12 08:39:29;;;;;;;29.58;17.35;;;1.90;99.90;;;;;;4900337;29;20044;-81
2021/12/12 08:41:58;;;;;;;29.52;16.83;;;1.90;99.90;;;;;;4890063;29;20044;-81
2021/12/12 08:44:28;;;;;;;29.42;17.48;;;1.90;99.90;;;;;;4888942;29;20102;-81
2021/12/12 08:46:57;;;;;;;28.48;17.75;;;1.90;99.90;;;;;;4890768;29;20448;-81
2021/12/12 08:49:33;;;;;;;30.80;18.23;;;2.00;99.90;;;;;;4889314;29;20519;-81
2021/12/12 08:52:13;;;;;;;28.55;17.45;;;2.00;99.90;;;;;;4890281;29;20044;-81
2021/12/12 08:54:42;;;;;;;33.00;17.38;;;1.90;99.90;;;;;;4889017;29;20053;-81
2021/12/12 08:57:23;;;;;;;25.60;15.68;;;2.00;99.90;;;;;;4891811;29;20045;-81
2021/12/12 08:59:52;;;;;;;27.90;17.02;;;2.00;99.90;;;;;;4893411;29;20074;-81
2021/12/12 09:02:19;;;;;;;25.15;16.92;;;2.00;99.90;;;;;;4889815;29;20076;-81
2021/12/12 09:04:54;;;;;;;28.45;15.13;;;2.00;99.90;;;;;;4889845;29;20497;-81
2021/12/12 09:07:30;;;;;;;25.45;16.77;;;2.00;99.90;;;;;;4887521;29;20033;-81
2021/12/12 09:10:03;;;;;;;27.75;15.15;;;2.00;99.90;;;;;;4884567;29;20195;-81
2021/12/12 09:12:44;;;;;;;24.80;15.20;;;2.00;99.90;;;;;;4891037;29;20055;-81
2021/12/12 09:15:29;;;;;;;27.38;15.35;;;1.90;99.90;;;;;;4905622;29;20052;-81
2021/12/12 09:18:06;;;;;;;21.98;13.32;;;1.90;99.90;;;;;;4889468;29;20048;-81
2021/12/12 09:20:52;;;;;;;20.65;13.25;;;1.90;99.90;;;;;;4885419;29;20056;-81
2021/12/12 09:23:32;;;;;;;24.90;12.93;;;2.00;99.90;;;;;;4885385;29;20059;-81
2021/12/12 09:26:07;;;;;;;22.45;14.10;;;2.00;99.90;;;;;;4885594;29;20338;-81
2021/12/12 09:29:05;;;;;;;26.00;14.55;;;1.90;99.90;;;;;;4886681;29;20041;-81
2021/12/12 09:31:39;;;;;;;28.20;14.35;;;2.00;99.90;;;;;;4901542;29;20048;-81
2021/12/12 09:34:16;;;;;;;21.02;14.00;;;2.00;99.90;;;;;;4897478;29;20077;-81
2021/12/12 09:36:55;;;;;;;22.25;14.80;;;2.00;99.90;;;;;;4890372;29;20104;-81
2021/12/12 09:39:24;;;;;;;22.02;13.80;;;2.00;99.90;;;;;;4880980;29;20088;-81
2021/12/12 09:42:01;;;;;;;22.63;12.30;;;2.00;99.90;;;;;;4889528;29;20153;-81
2021/12/12 09:45:11;;;;;;;19.55;12.15;;;2.10;99.90;;;;;;4886640;29;20053;-81
2021/12/12 09:51:26;;;;;;;21.10;13.05;;;2.10;99.90;;;;;;4896257;29;20052;-81
2021/12/12 09:53:58;;;;;;;17.88;11.00;;;2.10;99.90;;;;;;4887297;29;20056;-82
2021/12/12 09:56:46;;;;;;;20.85;12.15;;;2.10;99.90;;;;;;4888886;29;20546;-82
2021/12/12 09:59:43;;;;;;;19.00;12.55;;;2.20;99.90;;;;;;4889460;29;20055;-82
2021/12/12 10:02:16;;;;;;;18.50;12.45;;;2.20;99.90;;;;;;4888040;29;20048;-82
2021/12/12 10:05:09;;;;;;;21.13;12.55;;;2.20;99.90;;;;;;4888788;29;20052;-81
2021/12/12 10:07:58;;;;;;;21.92;12.63;;;2.20;99.90;;;;;;4887299;29;20540;-81
2021/12/12 10:10:34;;;;;;;20.00;11.82;;;2.30;99.90;;;;;;4888520;29;20052;-81
2021/12/12 10:13:07;;;;;;;18.63;12.73;;;2.40;99.90;;;;;;4873859;29;20041;-81
2021/12/12 10:15:44;;;;;;;18.58;12.18;;;2.30;99.90;;;;;;4886750;29;20055;-81
2021/12/12 10:18:20;;;;;;;20.23;10.98;;;2.30;99.90;;;;;;4885972;29;20060;-81
2021/12/12 10:20:52;;;;;;;17.50;12.43;;;2.30;99.90;;;;;;4888546;29;20067;-81
2021/12/12 10:23:42;;;;;;;18.38;10.57;;;2.30;99.90;;;;;;4889097;29;20040;-81
2021/12/12 10:26:20;;;;;;;20.80;12.50;;;2.30;99.90;;;;;;4886782;29;20053;-81
2021/12/12 10:29:00;;;;;;;18.67;11.88;;;2.30;99.90;;;;;;4892753;29;20044;-81
2021/12/12 10:31:47;;;;;;;21.23;12.50;;;2.30;99.90;;;;;;4891921;29;20049;-81
2021/12/12 10:34:20;;;;;;;17.27;11.98;;;2.30;99.90;;;;;;4873302;29;20260;-81
2021/12/12 10:36:56;;;;;;;18.85;11.23;;;2.30;99.90;;;;;;4893800;29;20127;-81
2021/12/12 10:39:33;;;;;;;16.63;10.38;;;2.30;99.90;;;;;;4893729;29;20053;-81
2021/12/12 10:42:05;;;;;;;17.27;10.95;;;2.40;99.90;;;;;;4890876;29;20524;-81
2021/12/12 10:44:42;;;;;;;16.90;10.48;;;2.40;99.90;;;;;;4902797;29;20048;-81
2021/12/12 10:47:22;;;;;;;15.32;10.80;;;2.40;99.90;;;;;;4890978;29;20060;-81
2021/12/12 10:50:11;;;;;;;16.67;11.02;;;2.40;99.90;;;;;;4890547;29;20187;-81
2021/12/12 10:52:47;;;;;;;12.85;10.20;;;2.50;99.90;;;;;;4888356;29;20045;-81
2021/12/12 10:55:21;;;;;;;14.48;9.07;;;2.60;99.90;;;;;;4890680;29;20053;-81
2021/12/12 10:57:57;;;;;;;12.35;9.52;;;2.60;99.90;;;;;;4891243;29;20044;-81
2021/12/12 11:00:29;;;;;;;10.25;8.43;;;2.70;99.90;;;;;;4888673;29;20053;-81
2021/12/12 11:03:05;;;;;;;11.05;8.70;;;2.70;99.90;;;;;;4893933;29;20143;-81
2021/12/12 11:05:42;;;;;;;15.82;10.48;;;2.80;99.90;;;;;;4888320;29;20057;-81
2021/12/12 11:08:22;;;;;;;11.65;8.38;;;2.80;99.90;;;;;;4904053;29;20554;-81
2021/12/12 11:11:11;;;;;;;12.73;8.60;;;2.90;99.90;;;;;;4904076;29;20104;-81
2021/12/12 11:14:18;;;;;;;10.30;8.13;;;2.90;99.90;;;;;;4906796;29;20071;-81
2021/12/12 11:16:58;;;;;;;8.10;7.13;;;2.90;99.90;;;;;;4887682;29;20044;-81
2021/12/12 11:19:31;;;;;;;9.50;7.38;;;2.90;99.90;;;;;;4887127;29;20032;-81
2021/12/12 11:22:23;;;;;;;11.40;7.63;;;2.90;99.90;;;;;;4900519;29;20045;-81
2021/12/12 11:25:00;;;;;;;7.22;5.65;;;2.90;99.90;;;;;;4886332;29;20045;-81
2021/12/12 11:27:36;;;;;;;9.48;6.80;;;2.90;99.90;;;;;;4891759;29;20045;-81
2021/12/12 11:30:23;;;;;;;8.10;7.35;;;2.90;99.90;;;;;;4889669;29;20052;-81
2021/12/12 11:32:54;;;;;;;9.15;6.47;;;2.80;99.90;;;;;;4884533;29;20049;-81
2021/12/12 11:35:25;;;;;;;8.57;7.03;;;2.90;99.90;;;;;;4891771;29;20056;-81
2021/12/12 11:38:12;;;;;;;9.68;7.40;;;2.90;99.90;;;;;;4891437;29;20072;-81
2021/12/12 11:41:17;;;;;;;7.88;6.57;;;2.80;99.90;;;;;;4884327;29;20064;-81
2021/12/12 11:44:13;;;;;;;8.63;7.10;;;2.80;99.90;;;;;;4861883;29;20374;-81
2021/12/12 11:47:06;;;;;;;10.43;7.53;;;2.80;99.90;;;;;;4888179;29;20124;-81
2021/12/12 11:49:43;;;;;;;7.47;6.50;;;2.90;99.90;;;;;;4892607;29;20052;-81
2021/12/12 11:52:15;;;;;;;6.72;6.03;;;2.90;99.90;;;;;;4886648;29;20052;-81
2021/12/12 11:55:06;;;;;;;5.80;5.05;;;2.90;99.90;;;;;;4889678;29;20051;-81
2021/12/12 11:58:05;;;;;;;6.80;5.28;;;2.90;99.90;;;;;;4889396;29;20048;-81
2021/12/12 12:00:37;;;;;;;6.65;4.78;;;2.90;99.90;;;;;;4875929;29;23516;-81
2021/12/12 12:03:28;;;;;;;4.20;3.80;;;2.90;99.90;;;;;;4891308;29;20651;-81
2021/12/12 12:06:10;;;;;;;5.78;3.53;;;2.90;99.90;;;;;;4873591;29;20100;-81
2021/12/12 12:09:08;;;;;;;5.10;3.42;;;2.70;99.90;;;;;;4889427;29;20144;-81
2021/12/12 12:12:09;;;;;;;5.35;3.47;;;2.70;99.90;;;;;;4890288;29;20048;-81
2021/12/12 12:15:14;;;;;;;4.07;3.65;;;2.60;99.90;;;;;;4887407;29;20048;-81
2021/12/12 12:18:00;;;;;;;4.85;4.38;;;2.60;99.90;;;;;;4888923;29;20054;-81
2021/12/12 12:20:56;;;;;;;4.68;3.33;;;2.60;99.90;;;;;;4894538;29;20502;-81
2021/12/12 12:23:58;;;;;;;3.03;2.40;;;2.60;99.90;;;;;;4887519;29;20052;-81
2021/12/12 12:29:32;;;;;;;3.28;2.60;;;2.60;99.90;;;;;;4888702;29;20607;-81
2021/12/12 12:32:11;;;;;;;3.60;3.28;;;2.50;99.90;;;;;;4888322;29;20075;-80
2021/12/12 12:34:49;;;;;;;3.05;2.85;;;2.50;99.90;;;;;;4889833;29;20084;-81
2021/12/12 12:37:41;;;;;;;4.30;3.30;;;2.50;99.90;;;;;;4886581;29;20059;-80
2021/12/12 12:40:35;;;;;;;3.53;3.15;;;2.50;99.90;;;;;;4887399;29;20067;-80
2021/12/12 12:43:27;;;;;;;5.03;4.20;;;2.40;99.90;;;;;;4870122;29;20063;-80
2021/12/12 12:46:15;;;;;;;3.67;3.35;;;2.30;99.90;;;;;;4888464;29;20415;-80
2021/12/12 12:48:46;;;;;;;4.60;4.20;;;2.30;99.90;;;;;;4901697;29;20051;-80
2021/12/12 12:51:32;;;;;;;4.60;3.70;;;2.20;99.90;;;;;;4903481;29;20056;-80
2021/12/12 12:54:23;;;;;;;6.93;4.70;;;2.20;99.90;;;;;;4886591;29;20049;-80
2021/12/12 12:57:22;;;;;;;4.30;3.50;;;2.20;99.90;;;;;;4900636;29;20068;-80
2021/12/12 12:59:57;;;;;;;4.65;4.25;;;2.10;99.90;;;;;;4887698;29;20060;-80
2021/12/12 13:02:43;;;;;;;5.88;4.57;;;2.10;99.90;;;;;;4889482;29;20139;-80
2021/12/12 13:05:52;;;;;;;7.05;4.38;;;2.20;99.90;;;;;;4900293;29;20638;-80
2021/12/12 13:08:49;;;;;;;9.00;6.97;;;2.10;99.90;;;;;;4886795;29;20053;-80
2021/12/12 13:11:22;;;;;;;7.97;7.07;;;2.10;99.90;;;;;;4901608;29;20051;-80
2021/12/12 13:14:01;;;;;;;8.48;7.57;;;2.10;99.90;;;;;;4904981;29;20056;-80
2021/12/12 13:16:44;;;;;;;11.88;9.73;;;2.10;99.90;;;;;;4889047;29;20044;-80
2021/12/12 13:19:32;;;;;;;11.38;8.98;;;2.00;99.90;;;;;;4888977;29;20044;-80
2021/12/12 13:22:05;;;;;;;8.18;7.35;;;2.00;99.90;;;;;;4890497;29;20055;-80
2021/12/12 13:25:12;;;;;;;9.68;7.13;;;1.90;99.90;;;;;;4886190;29;20045;-80
2021/12/12 13:28:17;;;;;;;9.27;8.13;;;1.80;99.90;;;;;;4865586;29;20405;-80
2021/12/12 13:31:26;;;;;;;11.35;8.07;;;1.70;99.90;;;;;;4887354;29;20408;-80
2021/12/12 13:34:19;;;;;;;9.75;8.00;;;1.60;99.90;;;;;;4888180;29;20055;-80
2021/12/12 13:37:46;;;;;;;12.63;8.70;;;1.50;99.90;;;;;;4889925;29;20387;-80
2021/12/12 13:40:24;;;;;;;10.88;8.60;;;1.50;99.90;;;;;;4833685;29;20063;-80
2021/12/12 13:43:10;;;;;;;13.45;10.63;;;1.40;99.90;;;;;;4886188;29;20045;-80
2021/12/12 13:45:40;;;;;;;13.65;10.25;;;1.40;99.90;;;;;;4896332;29;20135;-79
2021/12/12 13:48:40;;;;;;;11.27;9.95;;;1.40;99.90;;;;;;4888189;29;20055;-80
2021/12/12 13:51:40;;;;;;;10.35;9.27;;;1.40;99.90;;;;;;4889664;29;20542;-80